createdAt,value
2023-04-12T00:00:02.770Z,84.6
2023-04-12T00:01:02.182Z,84.6
2023-04-12T00:02:02.819Z,84.5
2023-04-12T00:03:02.310Z,84.3
2023-04-12T00:04:03.083Z,84.3
2023-04-12T00:05:02.412Z,84.2
2023-04-12T00:06:02.666Z,84.1
2023-04-12T00:07:02.111Z,83.8
2023-04-12T00:08:02.593Z,83.9
2023-04-12T00:09:03.124Z,84
2023-04-12T00:10:02.628Z,84
2023-04-12T00:11:03.084Z,84
2023-04-12T00:12:04.192Z,83.9
2023-04-12T00:13:02.991Z,84.3
2023-04-12T00:14:02.520Z,84.2
2023-04-12T00:15:03.019Z,84
2023-04-12T00:16:02.504Z,83.9
2023-04-12T00:17:04.591Z,84
2023-04-12T00:18:04.060Z,84.3
2023-04-12T00:19:02.993Z,84.4
2023-04-12T00:20:02.374Z,84.3
2023-04-12T00:21:04.509Z,84.2
2023-04-12T00:22:02.423Z,84.2
2023-04-12T00:23:02.842Z,84
2023-04-12T00:24:02.282Z,84.2
2023-04-12T00:25:02.787Z,84.3
2023-04-12T00:26:02.281Z,84.5
2023-04-12T00:27:02.804Z,84.5
2023-04-12T00:28:02.204Z,84.6
2023-04-12T00:29:02.697Z,84.7
2023-04-12T00:30:02.228Z,84.6
2023-04-12T00:31:02.757Z,84.7
2023-04-12T00:32:03.159Z,85
2023-04-12T00:33:02.648Z,84.9
2023-04-12T00:34:04.785Z,85
2023-04-12T00:35:02.697Z,84.9
2023-04-12T00:36:03.107Z,84.7
2023-04-12T00:37:04.206Z,84.6
2023-04-12T00:38:03.007Z,84.6
2023-04-12T00:39:02.467Z,84.5
2023-04-12T00:40:03.014Z,84.5
2023-04-12T00:41:02.458Z,84.5
2023-04-12T00:42:04.663Z,84.3
2023-04-12T00:43:02.455Z,84.3
2023-04-12T00:44:04.616Z,84.3
2023-04-12T00:45:02.386Z,84.4
2023-04-12T00:46:02.975Z,84.6
2023-04-12T00:47:03.622Z,84.9
2023-04-12T00:48:03.027Z,84.9
2023-04-12T00:49:04.136Z,85
2023-04-12T00:50:02.952Z,85.1
2023-04-12T00:51:02.451Z,85.3
2023-04-12T00:52:02.930Z,85.2
2023-04-12T00:53:02.385Z,85.2
2023-04-12T00:54:02.965Z,85.2
2023-04-12T00:55:04.070Z,85
2023-04-12T00:56:02.774Z,85.2
2023-04-12T00:57:02.322Z,85.1
2023-04-12T00:58:04.462Z,85.2
2023-04-12T00:59:02.248Z,85.2
2023-04-12T01:00:02.722Z,85.2
2023-04-12T01:01:02.193Z,85
2023-04-12T01:02:02.828Z,84.9
2023-04-12T01:03:02.387Z,84.9
2023-04-12T01:04:02.630Z,85.2
2023-04-12T01:05:03.112Z,85.5
2023-04-12T01:06:02.643Z,85.7
2023-04-12T01:07:03.111Z,86
2023-04-12T01:08:02.515Z,86
2023-04-12T01:09:03.120Z,86
2023-04-12T01:10:02.523Z,85.8
2023-04-12T01:11:03.006Z,85.5
2023-04-12T01:12:02.537Z,85.5
2023-04-12T01:13:03.007Z,85.3
2023-04-12T01:14:02.434Z,85.3
2023-04-12T01:15:02.929Z,85.2
2023-04-12T01:16:02.491Z,85.2
2023-04-12T01:17:02.950Z,85.2
2023-04-12T01:18:02.480Z,85.1
2023-04-12T01:19:02.956Z,84.9
2023-04-12T01:20:04.730Z,84.8
2023-04-12T01:21:02.920Z,84.9
2023-04-12T01:22:04.061Z,85
2023-04-12T01:23:04.517Z,85.2
2023-04-12T01:24:02.499Z,85.3
2023-04-12T01:25:02.844Z,85.2
2023-04-12T01:26:02.313Z,85
2023-04-12T01:27:02.771Z,84.9
2023-04-12T01:28:02.298Z,84.9
2023-04-12T01:29:02.763Z,84.9
2023-04-12T01:30:02.200Z,84.9
2023-04-12T01:31:02.720Z,84.9
2023-04-12T01:32:02.370Z,85.2
2023-04-12T01:33:04.416Z,85.5
2023-04-12T01:34:02.113Z,85.6
2023-04-12T01:35:02.680Z,85.5
2023-04-12T01:36:05.590Z,85.3
2023-04-12T01:37:04.280Z,85.3
2023-04-12T01:38:03.133Z,85.5
2023-04-12T01:39:04.529Z,85.7
2023-04-12T01:40:03.067Z,85.5
2023-04-12T01:41:04.197Z,85.4
2023-04-12T01:42:03.072Z,85.4
2023-04-12T01:43:02.589Z,85.4
2023-04-12T01:44:03.071Z,85.3
2023-04-12T01:45:02.534Z,85.5
2023-04-12T01:46:03.058Z,85.7
2023-04-12T01:47:02.517Z,85.6
2023-04-12T01:48:04.738Z,85.6
2023-04-12T01:49:04.112Z,85.5
2023-04-12T01:50:03.018Z,85.5
2023-04-12T01:51:02.468Z,85.4
2023-04-12T01:52:02.992Z,85.3
2023-04-12T01:53:02.483Z,85.3
2023-04-12T01:54:03.014Z,85.3
2023-04-12T01:55:05.876Z,85.3
2023-04-12T01:56:02.417Z,85.2
2023-04-12T01:57:02.930Z,85.3
2023-04-12T01:58:04.039Z,85.3
2023-04-12T01:59:06.210Z,85.2
2023-04-12T02:00:02.271Z,85.2
2023-04-12T02:01:02.789Z,85.2
2023-04-12T02:02:02.401Z,85.5
2023-04-12T02:03:04.601Z,85.6
2023-04-12T02:04:02.483Z,85.6
2023-04-12T02:05:02.687Z,85.6
2023-04-12T02:06:02.228Z,85.6
2023-04-12T02:07:02.690Z,85.7
2023-04-12T02:08:02.129Z,85.7
2023-04-12T02:09:02.716Z,85.6
2023-04-12T02:10:04.845Z,85.7
2023-04-12T02:11:02.608Z,85.7
2023-04-12T02:12:04.756Z,85.8
2023-04-12T02:13:02.542Z,85.7
2023-04-12T02:14:03.084Z,85.8
2023-04-12T02:15:02.516Z,85.8
2023-04-12T02:16:03.004Z,85.6
2023-04-12T02:17:02.690Z,85.7
2023-04-12T02:18:03.049Z,85.7
2023-04-12T02:19:02.440Z,85.7
2023-04-12T02:20:04.608Z,85.8
2023-04-12T02:21:02.367Z,85.8
2023-04-12T02:22:02.858Z,85.9
2023-04-12T02:23:02.371Z,86
2023-04-12T02:24:03.013Z,86
2023-04-12T02:25:02.409Z,86
2023-04-12T02:26:02.858Z,85.9
2023-04-12T02:27:02.491Z,85.9
2023-04-12T02:28:02.760Z,86
2023-04-12T02:29:02.340Z,86
2023-04-12T02:30:02.771Z,86.1
2023-04-12T02:31:02.341Z,86.2
2023-04-12T02:32:02.761Z,86.2
2023-04-12T02:33:03.922Z,86.2
2023-04-12T02:34:02.713Z,86.2
2023-04-12T02:35:02.213Z,86.2
2023-04-12T02:36:02.701Z,86
2023-04-12T02:38:02.640Z,86
2023-04-12T02:39:03.100Z,86.1
2023-04-12T02:40:02.732Z,86.1
2023-04-12T02:41:03.095Z,86.2
2023-04-12T02:42:04.201Z,86.1
2023-04-12T02:43:04.677Z,86.2
2023-04-12T02:44:02.537Z,86.1
2023-04-12T02:45:03.003Z,86.1
2023-04-12T02:46:02.601Z,86.1
2023-04-12T02:47:03.002Z,86.2
2023-04-12T02:48:02.666Z,86.3
2023-04-12T02:49:03.027Z,86.3
2023-04-12T02:50:02.464Z,86.3
2023-04-12T02:51:02.924Z,86.3
2023-04-12T02:52:02.474Z,86.3
2023-04-12T02:53:02.925Z,86.3
2023-04-12T02:54:02.392Z,86.2
2023-04-12T02:55:02.834Z,86.2
2023-04-12T02:56:02.956Z,86.3
2023-04-12T02:57:02.838Z,86.3
2023-04-12T02:58:03.981Z,86.4
2023-04-12T02:59:03.102Z,86.5
2023-04-12T03:00:02.273Z,86.5
2023-04-12T03:01:02.153Z,86.4
2023-04-12T03:02:02.854Z,86.3
2023-04-12T03:03:02.450Z,86.2
2023-04-12T03:04:04.444Z,86.2
2023-04-12T03:05:02.756Z,86
2023-04-12T03:06:02.308Z,85.9
2023-04-12T03:07:04.429Z,85.9
2023-04-12T03:08:03.871Z,85.9
2023-04-12T03:09:02.705Z,86.3
2023-04-12T03:10:03.157Z,86.5
2023-04-12T03:11:02.611Z,86.7
2023-04-12T03:12:03.098Z,86.5
2023-04-12T03:13:04.201Z,86.4
2023-04-12T03:14:04.693Z,86.6
2023-04-12T03:15:02.438Z,86.8
2023-04-12T03:16:02.954Z,86.8
2023-04-12T03:17:02.462Z,86.7
2023-04-12T03:18:03.032Z,86.5
2023-04-12T03:19:02.379Z,86.5
2023-04-12T03:20:02.952Z,86.4
2023-04-12T03:21:02.388Z,86.5
2023-04-12T03:22:02.846Z,86.4
2023-04-12T03:23:02.372Z,86.5
2023-04-12T03:24:03.087Z,86.7
2023-04-12T03:25:02.377Z,86.7
2023-04-12T03:26:02.853Z,86.7
2023-04-12T03:27:02.301Z,86.6
2023-04-12T03:28:02.792Z,86.6
2023-04-12T03:29:02.206Z,86.6
2023-04-12T03:30:02.793Z,86.6
2023-04-12T03:31:03.937Z,86.5
2023-04-12T03:32:02.692Z,86.5
2023-04-12T03:33:02.303Z,86.4
2023-04-12T03:34:02.620Z,86.5
2023-04-12T03:35:04.776Z,86.4
2023-04-12T03:36:02.708Z,86.4
2023-04-12T03:37:03.152Z,86.4
2023-04-12T03:38:02.548Z,86.4
2023-04-12T03:39:03.090Z,86.4
2023-04-12T03:40:02.522Z,86.4
2023-04-12T03:41:03.009Z,86.5
2023-04-12T03:42:04.130Z,86.5
2023-04-12T03:43:03.035Z,86.5
2023-04-12T03:44:04.131Z,86.5
2023-04-12T03:45:02.931Z,86.5
2023-04-12T03:46:02.594Z,86.6
2023-04-12T03:47:02.931Z,86.7
2023-04-12T03:48:02.551Z,86.7
2023-04-12T03:49:04.521Z,86.7
2023-04-12T03:51:02.760Z,86.6
2023-04-12T03:52:02.301Z,86.5
2023-04-12T03:53:02.833Z,86.5
2023-04-12T03:54:02.286Z,86.5
2023-04-12T03:55:02.765Z,86.5
2023-04-12T03:56:02.199Z,86.5
2023-04-12T03:57:02.686Z,86.5
2023-04-12T03:58:02.219Z,86.7
2023-04-12T03:59:02.675Z,86.6
2023-04-12T04:00:03.875Z,86.5
2023-04-12T04:01:02.674Z,86.5
2023-04-12T04:03:02.751Z,86.6
2023-04-12T04:04:03.492Z,86.7
2023-04-12T04:05:02.697Z,86.7
2023-04-12T04:06:03.072Z,86.8
2023-04-12T04:07:02.619Z,86.8
2023-04-12T04:08:03.135Z,86.9
2023-04-12T04:09:02.509Z,86.9
2023-04-12T04:10:04.674Z,87
2023-04-12T04:11:04.104Z,87
2023-04-12T04:12:02.997Z,87
2023-04-12T04:13:02.584Z,87
2023-04-12T04:14:02.624Z,87.1
2023-04-12T04:15:04.600Z,87.1
2023-04-12T04:16:02.480Z,87.1
2023-04-12T04:17:04.511Z,87.1
2023-04-12T04:18:02.413Z,87.1
2023-04-12T04:19:03.040Z,87.1
2023-04-12T04:20:04.024Z,87.1
2023-04-12T04:21:04.436Z,87.1
2023-04-12T04:22:02.446Z,87.1
2023-04-12T04:23:02.763Z,87.1
2023-04-12T04:24:02.201Z,87.1
2023-04-12T04:25:03.565Z,87.1
2023-04-12T04:26:02.789Z,87.1
2023-04-12T04:27:04.122Z,87.2
2023-04-12T04:28:03.100Z,87.1
2023-04-12T04:29:04.548Z,87.2
2023-04-12T04:30:04.075Z,87.2
2023-04-12T04:31:02.928Z,87.2
2023-04-12T04:32:02.534Z,87.2
2023-04-12T04:33:04.643Z,87.3
2023-04-12T04:34:02.534Z,87.2
2023-04-12T04:35:04.765Z,87.2
2023-04-12T04:36:02.738Z,87.2
2023-04-12T04:37:02.283Z,87.1
2023-04-12T04:38:02.938Z,87.1
2023-04-12T04:39:02.542Z,87.1
2023-04-12T04:40:04.779Z,87.1
2023-04-12T04:41:02.674Z,87.1
2023-04-12T04:42:02.207Z,87.2
2023-04-12T04:43:02.680Z,87.2
2023-04-12T04:44:02.225Z,87.2
2023-04-12T04:45:02.869Z,87.1
2023-04-12T04:46:04.457Z,87.1
2023-04-12T04:47:02.195Z,87.1
2023-04-12T04:48:04.451Z,87.1
2023-04-12T04:49:04.192Z,87.1
2023-04-12T04:50:02.230Z,87.1
2023-04-12T04:51:02.696Z,87.1
2023-04-12T04:52:02.190Z,87.1
2023-04-12T04:53:02.680Z,87.1
2023-04-12T04:54:02.309Z,87.2
2023-04-12T04:55:05.513Z,87.1
2023-04-12T04:56:02.624Z,87.2
2023-04-12T04:57:02.326Z,87.2
2023-04-12T04:58:03.128Z,87.2
2023-04-12T04:59:03.006Z,87.2
2023-04-12T05:00:02.272Z,87.2
2023-04-12T05:01:03.130Z,87.3
2023-04-12T05:02:03.155Z,87.3
2023-04-12T05:03:04.169Z,87.3
2023-04-12T05:04:05.181Z,87.3
2023-04-12T05:05:02.608Z,87.3
2023-04-12T05:06:02.224Z,87.3
2023-04-12T05:07:02.770Z,87.3
2023-04-12T05:08:02.299Z,87.3
2023-04-12T05:09:03.258Z,87.4
2023-04-12T05:10:04.641Z,87.4
2023-04-12T05:11:02.914Z,87.4
2023-04-12T05:12:02.644Z,87.4
2023-04-12T05:13:02.388Z,87.3
2023-04-12T05:14:02.313Z,87.3
2023-04-12T05:16:03.201Z,87.2
2023-04-12T05:17:04.622Z,87.2
2023-04-12T05:18:02.606Z,87.1
2023-04-12T05:19:03.187Z,87.1
2023-04-12T05:20:02.713Z,87.1
2023-04-12T05:21:02.567Z,87.1
2023-04-12T05:22:02.624Z,87.2
2023-04-12T05:23:03.977Z,87.1
2023-04-12T05:24:02.324Z,87.1
2023-04-12T05:25:02.959Z,87.1
2023-04-12T05:26:02.644Z,87.1
2023-04-12T05:27:03.218Z,87.2
2023-04-12T05:28:02.621Z,87.2
2023-04-12T05:29:03.142Z,87.2
2023-04-12T05:30:04.453Z,87.3
2023-04-12T05:31:02.726Z,87.3
2023-04-12T05:32:02.479Z,87.3
2023-04-12T05:33:03.333Z,87.4
2023-04-12T05:34:03.837Z,87.3
2023-04-12T05:35:02.725Z,87.3
2023-04-12T05:36:02.242Z,87.3
2023-04-12T05:37:02.687Z,87.3
2023-04-12T05:38:03.875Z,87.3
2023-04-12T05:39:04.708Z,87.3
2023-04-12T05:40:04.095Z,87.2
2023-04-12T05:41:02.914Z,87.3
2023-04-12T05:42:02.552Z,87.3
2023-04-12T05:43:04.602Z,87.2
2023-04-12T05:44:04.726Z,87.2
2023-04-12T05:45:02.421Z,87.2
2023-04-12T05:46:02.966Z,87.2
2023-04-12T05:47:02.435Z,87.2
2023-04-12T05:48:03.119Z,87.2
2023-04-12T05:49:04.378Z,87.2
2023-04-12T05:50:04.302Z,87.2
2023-04-12T05:51:02.702Z,87.1
2023-04-12T05:52:02.278Z,87
2023-04-12T05:53:02.839Z,87.1
2023-04-12T05:54:05.221Z,87.1
2023-04-12T05:55:04.294Z,87
2023-04-12T05:56:02.222Z,87
2023-04-12T05:57:02.755Z,87
2023-04-12T05:58:02.281Z,87
2023-04-12T05:59:04.463Z,86.9
2023-04-12T06:00:02.448Z,87
2023-04-12T06:01:02.924Z,87
2023-04-12T06:02:02.579Z,87
2023-04-12T06:03:04.966Z,87
2023-04-12T06:04:03.567Z,87
2023-04-12T06:05:03.649Z,87.1
2023-04-12T06:06:02.696Z,87
2023-04-12T06:07:02.227Z,87
2023-04-12T06:08:02.913Z,86.9
2023-04-12T06:09:02.388Z,87
2023-04-12T06:10:03.107Z,86.9
2023-04-12T06:11:02.683Z,86.8
2023-04-12T06:12:02.206Z,86.8
2023-04-12T06:13:02.951Z,86.8
2023-04-12T06:14:03.149Z,86.7
2023-04-12T06:15:04.869Z,86.6
2023-04-12T06:16:03.083Z,86.5
2023-04-12T06:17:02.524Z,86.3
2023-04-12T06:18:03.244Z,86.3
2023-04-12T06:19:04.451Z,86.2
2023-04-12T06:20:02.441Z,86.1
2023-04-12T06:21:03.030Z,86
2023-04-12T06:22:04.447Z,85.7
2023-04-12T06:23:02.316Z,85.6
2023-04-12T06:24:05.442Z,85.4
2023-04-12T06:25:04.853Z,85.3
2023-04-12T06:26:02.938Z,85.2
2023-04-12T06:27:03.270Z,84.7
2023-04-12T06:28:02.399Z,84.2
2023-04-12T06:29:03.093Z,83.6
2023-04-12T06:30:03.019Z,83.6
2023-04-12T06:31:02.739Z,83.4
2023-04-12T06:32:02.215Z,83.1
2023-04-12T06:33:04.560Z,82.9
2023-04-12T06:34:03.150Z,82.2
2023-04-12T06:35:04.493Z,82.4
2023-04-12T06:36:02.311Z,82.2
2023-04-12T06:37:02.942Z,82.2
2023-04-12T06:38:03.170Z,82.2
2023-04-12T06:39:06.500Z,82.3
2023-04-12T06:40:03.135Z,82.5
2023-04-12T06:41:02.682Z,82.8
2023-04-12T06:42:02.350Z,82.5
2023-04-12T06:43:02.947Z,82.2
2023-04-12T06:44:03.654Z,82.3
2023-04-12T06:45:02.500Z,82
2023-04-12T06:46:03.117Z,82
2023-04-12T06:47:02.801Z,81.9
2023-04-12T06:48:02.411Z,81.9
2023-04-12T06:49:03.076Z,82
2023-04-12T06:50:02.766Z,81.6
2023-04-12T06:51:02.436Z,81.2
2023-04-12T06:52:02.114Z,81.3
2023-04-12T06:53:04.423Z,81.5
2023-04-12T06:54:04.482Z,81.8
2023-04-12T06:55:03.107Z,81.8
2023-04-12T06:56:04.457Z,81.7
2023-04-12T06:57:02.262Z,81.3
2023-04-12T06:58:02.829Z,81.3
2023-04-12T06:59:04.183Z,81.5
2023-04-12T07:00:02.270Z,81.6
2023-04-12T07:01:02.930Z,81.1
2023-04-12T07:02:03.610Z,81.1
2023-04-12T07:03:03.338Z,81.2
2023-04-12T07:04:05.717Z,81.2
2023-04-12T07:05:02.867Z,80.2
2023-04-12T07:06:07.736Z,79.9
2023-04-12T07:07:02.296Z,80.2
2023-04-12T07:08:03.038Z,80.1
2023-04-12T07:09:04.521Z,80
2023-04-12T07:10:03.948Z,79.5
2023-04-12T07:11:17.919Z,78.7
2023-04-12T07:12:02.443Z,79.3
2023-04-12T07:13:03.055Z,78.1
2023-04-12T07:14:05.162Z,78.6
2023-04-12T07:15:02.768Z,79
2023-04-12T07:16:02.384Z,78.6
2023-04-12T07:17:02.931Z,78
2023-04-12T07:18:04.233Z,77
2023-04-12T07:19:03.126Z,77
2023-04-12T07:20:02.725Z,77.7
2023-04-12T07:21:02.315Z,77.7
2023-04-12T07:22:02.922Z,76.9
2023-04-12T07:23:02.610Z,77.7
2023-04-12T07:24:04.488Z,77.5
2023-04-12T07:25:02.170Z,76.2
2023-04-12T07:26:02.859Z,76.9
2023-04-12T07:27:02.379Z,75.5
2023-04-12T07:28:02.929Z,75.4
2023-04-12T07:29:02.788Z,75.5
2023-04-12T07:30:04.164Z,74.5
2023-04-12T07:31:02.936Z,74.8
2023-04-12T07:32:04.298Z,74
2023-04-12T07:33:12.250Z,72.7
2023-04-12T07:34:03.787Z,72.6
2023-04-12T07:35:04.680Z,71.8
2023-04-12T07:36:04.558Z,72.2
2023-04-12T07:37:02.291Z,72.3
2023-04-12T07:38:02.925Z,70.9
2023-04-12T07:39:02.805Z,70.7
2023-04-12T07:40:04.350Z,73.2
2023-04-12T07:41:02.405Z,72.3
2023-04-12T07:42:03.095Z,71.1
2023-04-12T07:44:04.034Z,70.6
2023-04-12T07:45:03.103Z,70.7
2023-04-12T07:46:02.786Z,70.9
2023-04-12T07:47:02.467Z,69.3
2023-04-12T07:48:02.435Z,68.2
2023-04-12T07:49:03.098Z,67.5
2023-04-12T07:50:02.850Z,69
2023-04-12T07:51:02.488Z,67.4
2023-04-12T07:52:04.528Z,66.9
2023-04-12T07:53:04.043Z,66.7
2023-04-12T07:54:04.081Z,68.4
2023-04-12T07:55:03.116Z,67.9
2023-04-12T07:56:03.116Z,67.5
2023-04-12T07:57:02.639Z,66.5
2023-04-12T07:58:03.104Z,68.1
2023-04-12T07:59:03.046Z,66
2023-04-12T08:00:02.567Z,66.7
2023-04-12T08:01:03.019Z,67.9
2023-04-12T08:02:02.682Z,67.4
2023-04-12T08:03:02.563Z,66.7
2023-04-12T08:04:05.519Z,66.7
2023-04-12T08:05:02.324Z,66
2023-04-12T08:06:04.639Z,66.1
2023-04-12T08:07:02.385Z,67.5
2023-04-12T08:08:02.932Z,66.3
2023-04-12T08:09:02.584Z,66.4
2023-04-12T08:10:02.226Z,67.1
2023-04-12T08:11:02.826Z,67.6
2023-04-12T08:12:04.063Z,67
2023-04-12T08:13:02.921Z,67.9
2023-04-12T08:14:05.456Z,69.5
2023-04-12T08:15:04.521Z,67.1
2023-04-12T08:16:03.969Z,65.9
2023-04-12T08:17:04.631Z,67.9
2023-04-12T08:18:02.498Z,68
2023-04-12T08:19:03.111Z,69
2023-04-12T08:20:02.455Z,66.7
2023-04-12T08:21:02.936Z,68.2
2023-04-12T08:22:04.244Z,66.1
2023-04-12T08:23:03.080Z,67.1
2023-04-12T08:24:03.620Z,67.9
2023-04-12T08:25:02.612Z,67.7
2023-04-12T08:26:04.713Z,68.4
2023-04-12T08:27:02.513Z,66.6
2023-04-12T08:28:03.047Z,68.2
2023-04-12T08:29:02.548Z,68.1
2023-04-12T08:30:03.156Z,68.6
2023-04-12T08:31:04.362Z,67.9
2023-04-12T08:32:02.215Z,68.2
2023-04-12T08:33:02.740Z,67.5
2023-04-12T08:34:03.369Z,68.1
2023-04-12T08:35:04.797Z,66.5
2023-04-12T08:36:02.711Z,67
2023-04-12T08:37:02.390Z,66.4
2023-04-12T08:38:02.908Z,67.2
2023-04-12T08:39:03.138Z,66.6
2023-04-12T08:40:04.514Z,68.7
2023-04-12T08:41:04.120Z,68.9
2023-04-12T08:42:02.940Z,68.4
2023-04-12T08:43:04.180Z,66.1
2023-04-12T08:44:05.037Z,66.1
2023-04-12T08:45:03.033Z,67.2
2023-04-12T08:46:02.441Z,66.7
2023-04-12T08:47:03.015Z,67.6
2023-04-12T08:48:02.569Z,66.7
2023-04-12T08:49:03.972Z,65.4
2023-04-12T08:50:02.924Z,68.2
2023-04-12T08:51:02.582Z,65.4
2023-04-12T08:52:02.284Z,66
2023-04-12T08:53:03.136Z,66
2023-04-12T08:54:05.133Z,66.8
2023-04-12T08:55:02.931Z,65.5
2023-04-12T08:56:02.186Z,67.1
2023-04-12T08:57:03.062Z,66
2023-04-12T08:58:02.184Z,66.3
2023-04-12T08:59:02.353Z,66.9
2023-04-12T09:00:02.302Z,65.2
2023-04-12T09:01:02.485Z,66.3
2023-04-12T09:02:03.841Z,67.2
2023-04-12T09:03:03.771Z,66.7
2023-04-12T09:04:04.621Z,66.1
2023-04-12T09:05:03.703Z,66.5
2023-04-12T09:06:02.770Z,65.7
2023-04-12T09:07:02.513Z,65.2
2023-04-12T09:08:03.240Z,66.2
2023-04-12T09:09:06.771Z,67.3
2023-04-12T09:10:02.403Z,65.7
2023-04-12T09:11:03.007Z,66.4
2023-04-12T09:12:02.523Z,65.3
2023-04-12T09:14:03.696Z,66.3
2023-04-12T09:15:04.589Z,64.6
2023-04-12T09:16:02.850Z,64.9
2023-04-12T09:17:02.394Z,65.8
2023-04-12T09:18:03.029Z,64.6
2023-04-12T09:19:02.885Z,65.3
2023-04-12T09:20:02.525Z,65.2
2023-04-12T09:21:02.118Z,65.8
2023-04-12T09:22:02.702Z,63.1
2023-04-12T09:23:02.277Z,66.3
2023-04-12T09:24:06.006Z,64.7
2023-04-12T09:25:04.776Z,64.6
2023-04-12T09:26:02.375Z,64.8
2023-04-12T09:27:02.925Z,64.9
2023-04-12T09:28:04.197Z,64
2023-04-12T09:29:03.057Z,65
2023-04-12T09:30:02.653Z,65.3
2023-04-12T09:31:03.171Z,63.1
2023-04-12T09:32:02.901Z,65.3
2023-04-12T09:33:02.243Z,62.9
2023-04-12T09:34:03.686Z,64.7
2023-04-12T09:35:04.166Z,65.7
2023-04-12T09:36:03.111Z,65.1
2023-04-12T09:37:04.365Z,64
2023-04-12T09:38:03.882Z,63.9
2023-04-12T09:39:04.537Z,63.8
2023-04-12T09:40:02.462Z,63.6
2023-04-12T09:41:04.699Z,63.2
2023-04-12T09:42:02.525Z,63.5
2023-04-12T09:43:03.090Z,63.4
2023-04-12T09:44:04.263Z,61.9
2023-04-12T09:45:02.862Z,63.7
2023-04-12T09:46:02.425Z,62.4
2023-04-12T09:47:02.948Z,63.3
2023-04-12T09:48:02.605Z,64.8
2023-04-12T09:49:02.229Z,65
2023-04-12T09:50:04.521Z,63.6
2023-04-12T09:51:02.454Z,63.6
2023-04-12T09:52:03.254Z,61.3
2023-04-12T09:53:02.835Z,62.4
2023-04-12T09:54:03.413Z,61.6
2023-04-12T09:55:02.600Z,60.6
2023-04-12T09:56:03.897Z,61.4
2023-04-12T09:57:02.709Z,62.9
2023-04-12T09:58:02.459Z,61.2
2023-04-12T09:59:03.393Z,62.6
2023-04-12T10:00:03.018Z,62
2023-04-12T10:01:02.550Z,60.4
2023-04-12T10:02:02.582Z,60.6
2023-04-12T10:03:03.093Z,61.4
2023-04-12T10:04:03.850Z,62.3
2023-04-12T10:05:02.511Z,60.8
2023-04-12T10:06:04.639Z,61
2023-04-12T10:07:02.537Z,61.4
2023-04-12T10:08:02.834Z,61.1
2023-04-12T10:09:04.668Z,61.5
2023-04-12T10:10:04.271Z,63.5
2023-04-12T10:11:02.289Z,61.4
2023-04-12T10:12:02.934Z,62.4
2023-04-12T10:13:02.673Z,62.5
2023-04-12T10:14:33.402Z,61.6
2023-04-12T10:15:03.554Z,61.3
2023-04-12T10:16:03.055Z,62.3
2023-04-12T10:17:02.538Z,60.4
2023-04-12T10:18:03.098Z,59.8
2023-04-12T10:19:02.692Z,61.8
2023-04-12T10:20:02.398Z,61.1
2023-04-12T10:21:04.688Z,63.2
2023-04-12T10:22:02.466Z,62.3
2023-04-12T10:23:03.132Z,62.3
2023-04-12T10:24:03.661Z,62.5
2023-04-12T10:25:03.133Z,60.5
2023-04-12T10:26:02.243Z,63.3
2023-04-12T10:27:02.796Z,62.4
2023-04-12T10:28:02.401Z,62.7
2023-04-12T10:29:02.862Z,60.9
2023-04-12T10:30:02.380Z,61.3
2023-04-12T10:31:04.851Z,63.9
2023-04-12T10:32:02.584Z,61.4
2023-04-12T10:33:05.288Z,59.6
2023-04-12T10:34:05.225Z,61
2023-04-12T10:35:02.838Z,61.8
2023-04-12T10:36:02.248Z,62.3
2023-04-12T10:37:04.514Z,60.2
2023-04-12T10:38:02.526Z,61.2
2023-04-12T10:39:03.153Z,60.5
2023-04-12T10:40:04.418Z,60.3
2023-04-12T10:41:03.966Z,61
2023-04-12T10:42:02.861Z,61.5
2023-04-12T10:43:02.493Z,60.9
2023-04-12T10:44:05.883Z,62.2
2023-04-12T10:45:03.016Z,62.9
2023-04-12T10:46:02.649Z,61.7
2023-04-12T10:47:03.356Z,62.5
2023-04-12T10:48:02.774Z,62.8
2023-04-12T10:49:02.377Z,63.2
2023-04-12T10:50:02.942Z,61.5
2023-04-12T10:51:02.446Z,61.8
2023-04-12T10:52:03.072Z,63
2023-04-12T10:53:04.224Z,61.8
2023-04-12T10:54:05.488Z,62.5
2023-04-12T10:55:03.400Z,62.4
2023-04-12T10:56:02.540Z,61.7
2023-04-12T10:57:03.087Z,60.8
2023-04-12T10:58:04.467Z,61.5
2023-04-12T10:59:02.681Z,62.7
2023-04-12T11:00:02.926Z,62.4
2023-04-12T11:01:02.563Z,61.2
2023-04-12T11:03:06.807Z,62.5
2023-04-12T11:04:04.212Z,62.9
2023-04-12T11:05:04.831Z,61.4
2023-04-12T11:06:16.235Z,61.3
2023-04-12T11:07:03.191Z,62.8
2023-04-12T11:08:02.688Z,62.4
2023-04-12T11:09:04.372Z,64.3
2023-04-12T11:10:03.926Z,64.5
2023-04-12T11:11:02.682Z,62.6
2023-04-12T11:12:02.276Z,61.5
2023-04-12T11:13:04.584Z,61.7
2023-04-12T11:14:03.917Z,62
2023-04-12T11:15:04.602Z,61.3
2023-04-12T11:16:02.579Z,63.2
2023-04-12T11:17:03.081Z,64
2023-04-12T11:18:03.117Z,63.5
2023-04-12T11:19:02.842Z,61.8
2023-04-12T11:20:02.633Z,62.2
2023-04-12T11:21:02.207Z,61.8
2023-04-12T11:22:02.808Z,61.6
2023-04-12T11:23:02.285Z,61.6
2023-04-12T11:24:05.311Z,62.8
2023-04-12T11:25:03.253Z,63
2023-04-12T11:26:04.393Z,64.2
2023-04-12T11:27:02.632Z,63.3
2023-04-12T11:28:05.437Z,63.6
2023-04-12T11:29:02.747Z,62.6
2023-04-12T11:30:03.149Z,63.9
2023-04-12T11:31:02.794Z,64.4
2023-04-12T11:32:02.410Z,63.7
2023-04-12T11:33:04.619Z,62.4
2023-04-12T11:34:03.394Z,64.3
2023-04-12T11:35:02.221Z,63.7
2023-04-12T11:36:04.451Z,62.8
2023-04-12T11:37:02.298Z,62.5
2023-04-12T11:38:02.745Z,63.3
2023-04-12T11:39:04.023Z,63.1
2023-04-12T11:40:02.922Z,64.4
2023-04-12T11:41:02.502Z,63.8
2023-04-12T11:42:04.744Z,64.4
2023-04-12T11:43:02.500Z,65.3
2023-04-12T11:45:13.366Z,64.6
2023-04-12T11:46:02.548Z,63.7
2023-04-12T11:47:02.989Z,64.8
2023-04-12T11:48:02.624Z,64.7
2023-04-12T11:49:02.252Z,65.3
2023-04-12T11:50:04.451Z,65.7
2023-04-12T11:51:11.414Z,64.9
2023-04-12T11:52:02.837Z,64.8
2023-04-12T11:53:02.434Z,65.6
2023-04-12T11:54:03.561Z,65.3
2023-04-12T11:55:05.305Z,66.2
2023-04-12T11:56:04.428Z,66
2023-04-12T11:57:05.556Z,66.9
2023-04-12T11:58:02.453Z,66.4
2023-04-12T11:59:04.612Z,68.2
2023-04-12T12:00:04.223Z,68.5
2023-04-12T12:01:03.084Z,68.9
2023-04-12T12:02:10.850Z,69.7
2023-04-12T12:03:07.143Z,69.6
2023-04-12T12:04:05.972Z,70.3
2023-04-12T12:05:03.451Z,70
2023-04-12T12:06:04.476Z,71.1
2023-04-12T12:07:03.434Z,71.7
2023-04-12T12:08:04.193Z,71.1
2023-04-12T12:09:04.914Z,72.1
2023-04-12T12:10:02.545Z,73.1
2023-04-12T12:11:07.765Z,72.6
2023-04-12T12:12:02.551Z,73
2023-04-12T12:13:04.800Z,71.9
2023-04-12T12:14:03.537Z,72.4
2023-04-12T12:15:02.859Z,73.6
2023-04-12T12:16:03.045Z,73.2
2023-04-12T12:17:04.193Z,73.4
2023-04-12T12:18:04.734Z,73.7
2023-04-12T12:19:02.609Z,73.1
2023-04-12T12:20:03.170Z,74.6
2023-04-12T12:21:04.305Z,74.8
2023-04-12T12:22:02.273Z,74.6
2023-04-12T12:23:02.675Z,75.1
2023-04-12T12:24:03.282Z,75.8
2023-04-12T12:25:03.237Z,76.3
2023-04-12T12:26:10.457Z,75.7
2023-04-12T12:27:02.994Z,75.7
2023-04-12T12:28:02.637Z,75.9
2023-04-12T12:29:03.101Z,76.2
2023-04-12T12:30:02.669Z,76
2023-04-12T12:31:02.315Z,76.7
2023-04-12T12:32:02.774Z,77.5
2023-04-12T12:33:02.309Z,77.1
2023-04-12T12:34:05.801Z,76.3
2023-04-12T12:35:04.336Z,75.7
2023-04-12T12:36:03.196Z,77.2
2023-04-12T12:37:02.693Z,77.2
2023-04-12T12:38:02.438Z,76.5
2023-04-12T12:39:02.379Z,77.3
2023-04-12T12:40:03.613Z,77.6
2023-04-12T12:41:02.750Z,77
2023-04-12T12:42:02.338Z,77.3
2023-04-12T12:43:02.931Z,76.6
2023-04-12T12:44:05.714Z,77.2
2023-04-12T12:45:02.511Z,78
2023-04-12T12:46:02.855Z,78.3
2023-04-12T12:47:10.280Z,77.2
2023-04-12T12:48:03.382Z,78.3
2023-04-12T12:49:03.006Z,78.7
2023-04-12T12:50:04.187Z,77.9
2023-04-12T12:51:02.999Z,78.6
2023-04-12T12:52:02.617Z,77.6
2023-04-12T12:53:02.218Z,77.7
2023-04-12T12:54:05.459Z,78.3
2023-04-12T12:55:03.698Z,78.2
2023-04-12T12:56:02.801Z,78.2
2023-04-12T12:57:02.436Z,77.7
2023-04-12T12:58:08.100Z,77.6
2023-04-12T12:59:04.687Z,77.2
2023-04-12T13:00:02.552Z,77.4
2023-04-12T13:01:02.313Z,77
2023-04-12T13:02:03.912Z,76.9
2023-04-12T13:03:04.246Z,75.8
2023-04-12T13:04:04.265Z,76.4
2023-04-12T13:05:03.336Z,76.4
2023-04-12T13:06:02.556Z,76.6
2023-04-12T13:07:02.447Z,76.1
2023-04-12T13:08:03.040Z,75.8
2023-04-12T13:09:04.788Z,75.7
2023-04-12T13:10:02.491Z,76
2023-04-12T13:11:02.287Z,75.8
2023-04-12T13:12:02.947Z,76.6
2023-04-12T13:13:04.287Z,75.7
2023-04-12T13:14:04.635Z,76.7
2023-04-12T13:15:18.186Z,76.2
2023-04-12T13:16:04.724Z,75.8
2023-04-12T13:17:02.736Z,74.4
2023-04-12T13:18:02.488Z,75.3
2023-04-12T13:19:03.178Z,74.6
2023-04-12T13:20:02.968Z,73.8
2023-04-12T13:21:02.700Z,75.2
2023-04-12T13:22:02.366Z,75.2
2023-04-12T13:23:04.686Z,75.5
2023-04-12T13:24:05.382Z,76.5
2023-04-12T13:25:05.058Z,76.1
2023-04-12T13:26:02.782Z,75.5
2023-04-12T13:27:02.522Z,76.4
2023-04-12T13:28:02.322Z,75.9
2023-04-12T13:29:03.257Z,75.9
2023-04-12T13:30:02.872Z,76.8
2023-04-12T13:31:02.697Z,76.9